sensor_id;sensor_type;location;lat;lon;timestamp;P1;durP1;ratioP1;P2;durP2;ratioP2
50739;SDS011;36704;52.524;17.580;2023-04-25T00:01:22;3.97;;;2.85;;
50739;SDS011;36704;52.524;17.580;2023-04-25T00:04:07;4.60;;;3.20;;
50739;SDS011;36704;52.524;17.580;2023-04-25T00:06:53;4.10;;;2.90;;
50739;SDS011;36704;52.524;17.580;2023-04-25T00:09:39;6.03;;;3.25;;
50739;SDS011;36704;52.524;17.580;2023-04-25T00:12:26;4.43;;;2.42;;
50739;SDS011;36704;52.524;17.580;2023-04-25T00:15:14;2.50;;;2.05;;
50739;SDS011;36704;52.524;17.580;2023-04-25T00:18:00;2.58;;;1.73;;
50739;SDS011;36704;52.524;17.580;2023-04-25T00:20:46;1.90;;;1.70;;
50739;SDS011;36704;52.524;17.580;2023-04-25T00:23:32;2.45;;;1.90;;
50739;SDS011;36704;52.524;17.580;2023-04-25T00:26:18;1.65;;;1.50;;
50739;SDS011;36704;52.524;17.580;2023-04-25T00:29:06;2.42;;;1.98;;
50739;SDS011;36704;52.524;17.580;2023-04-25T00:31:52;1.88;;;1.70;;
50739;SDS011;36704;52.524;17.580;2023-04-25T00:34:38;3.22;;;1.80;;
50739;SDS011;36704;52.524;17.580;2023-04-25T00:37:24;3.75;;;1.73;;
50739;SDS011;36704;52.524;17.580;2023-04-25T00:40:11;2.80;;;1.90;;
50739;SDS011;36704;52.524;17.580;2023-04-25T00:42:57;2.25;;;1.83;;
50739;SDS011;36704;52.524;17.580;2023-04-25T00:45:43;2.05;;;1.70;;
50739;SDS011;36704;52.524;17.580;2023-04-25T00:48:30;1.95;;;1.55;;
50739;SDS011;36704;52.524;17.580;2023-04-25T00:51:19;2.38;;;1.40;;
50739;SDS011;36704;52.524;17.580;2023-04-25T00:54:06;2.65;;;1.70;;
50739;SDS011;36704;52.524;17.580;2023-04-25T00:56:52;2.17;;;1.60;;
50739;SDS011;36704;52.524;17.580;2023-04-25T00:59:38;1.60;;;1.40;;
50739;SDS011;36704;52.524;17.580;2023-04-25T01:02:24;3.70;;;1.42;;
50739;SDS011;36704;52.524;17.580;2023-04-25T01:05:11;1.98;;;1.35;;
50739;SDS011;36704;52.524;17.580;2023-04-25T01:07:58;1.85;;;1.10;;
50739;SDS011;36704;52.524;17.580;2023-04-25T01:10:44;2.03;;;1.33;;
50739;SDS011;36704;52.524;17.580;2023-04-25T01:13:30;3.00;;;1.13;;
50739;SDS011;36704;52.524;17.580;2023-04-25T01:16:17;1.50;;;1.20;;
50739;SDS011;36704;52.524;17.580;2023-04-25T01:19:06;2.00;;;1.23;;
50739;SDS011;36704;52.524;17.580;2023-04-25T01:21:57;3.05;;;1.00;;
50739;SDS011;36704;52.524;17.580;2023-04-25T01:24:44;1.65;;;1.20;;
50739;SDS011;36704;52.524;17.580;2023-04-25T01:27:30;1.20;;;1.10;;
50739;SDS011;36704;52.524;17.580;2023-04-25T01:30:16;1.45;;;1.17;;
50739;SDS011;36704;52.524;17.580;2023-04-25T01:33:02;1.25;;;1.15;;
50739;SDS011;36704;52.524;17.580;2023-04-25T01:35:50;3.97;;;1.30;;
50739;SDS011;36704;52.524;17.580;2023-04-25T01:38:37;2.45;;;1.27;;
50739;SDS011;36704;52.524;17.580;2023-04-25T01:41:24;2.83;;;1.23;;
50739;SDS011;36704;52.524;17.580;2023-04-25T01:44:10;2.95;;;1.27;;
50739;SDS011;36704;52.524;17.580;2023-04-25T01:46:57;2.45;;;1.40;;
50739;SDS011;36704;52.524;17.580;2023-04-25T01:49:44;2.40;;;1.92;;
50739;SDS011;36704;52.524;17.580;2023-04-25T01:52:30;1.88;;;1.40;;
50739;SDS011;36704;52.524;17.580;2023-04-25T01:55:16;2.25;;;1.10;;
50739;SDS011;36704;52.524;17.580;2023-04-25T01:58:14;1.50;;;1.40;;
50739;SDS011;36704;52.524;17.580;2023-04-25T02:01:18;1.52;;;1.42;;
50739;SDS011;36704;52.524;17.580;2023-04-25T02:04:17;1.83;;;1.30;;
50739;SDS011;36704;52.524;17.580;2023-04-25T02:07:03;1.40;;;1.30;;
50739;SDS011;36704;52.524;17.580;2023-04-25T02:09:58;6.25;;;2.05;;
50739;SDS011;36704;52.524;17.580;2023-04-25T02:12:46;2.20;;;1.15;;
50739;SDS011;36704;52.524;17.580;2023-04-25T02:15:59;2.10;;;1.35;;
50739;SDS011;36704;52.524;17.580;2023-04-25T02:18:45;3.00;;;1.50;;
50739;SDS011;36704;52.524;17.580;2023-04-25T02:21:31;1.40;;;1.30;;
50739;SDS011;36704;52.524;17.580;2023-04-25T02:24:17;2.33;;;1.50;;
50739;SDS011;36704;52.524;17.580;2023-04-25T02:27:03;2.42;;;1.33;;
50739;SDS011;36704;52.524;17.580;2023-04-25T02:29:49;1.40;;;1.30;;
50739;SDS011;36704;52.524;17.580;2023-04-25T02:32:35;1.77;;;1.35;;
50739;SDS011;36704;52.524;17.580;2023-04-25T02:35:21;1.67;;;1.55;;
50739;SDS011;36704;52.524;17.580;2023-04-25T02:38:07;2.80;;;1.60;;
50739;SDS011;36704;52.524;17.580;2023-04-25T02:40:53;2.60;;;1.50;;
50739;SDS011;36704;52.524;17.580;2023-04-25T02:43:39;2.03;;;1.40;;
50739;SDS011;36704;52.524;17.580;2023-04-25T02:46:26;2.83;;;1.40;;
50739;SDS011;36704;52.524;17.580;2023-04-25T02:49:24;2.45;;;1.50;;
50739;SDS011;36704;52.524;17.580;2023-04-25T02:52:10;2.20;;;1.35;;
50739;SDS011;36704;52.524;17.580;2023-04-25T02:54:57;1.60;;;1.50;;
50739;SDS011;36704;52.524;17.580;2023-04-25T02:57:44;1.85;;;1.50;;
50739;SDS011;36704;52.524;17.580;2023-04-25T03:00:34;2.45;;;1.63;;
50739;SDS011;36704;52.524;17.580;2023-04-25T03:03:20;1.88;;;1.67;;
50739;SDS011;36704;52.524;17.580;2023-04-25T03:06:08;2.30;;;1.63;;
50739;SDS011;36704;52.524;17.580;2023-04-25T03:08:54;2.78;;;1.40;;
50739;SDS011;36704;52.524;17.580;2023-04-25T03:11:40;3.05;;;1.60;;
50739;SDS011;36704;52.524;17.580;2023-04-25T03:14:26;2.17;;;1.50;;
50739;SDS011;36704;52.524;17.580;2023-04-25T03:17:13;2.88;;;1.60;;
50739;SDS011;36704;52.524;17.580;2023-04-25T03:19:59;4.72;;;1.63;;
50739;SDS011;36704;52.524;17.580;2023-04-25T03:22:47;1.63;;;1.50;;
50739;SDS011;36704;52.524;17.580;2023-04-25T03:25:33;2.45;;;1.55;;
50739;SDS011;36704;52.524;17.580;2023-04-25T03:28:19;2.05;;;1.67;;
50739;SDS011;36704;52.524;17.580;2023-04-25T03:31:05;1.98;;;1.65;;
50739;SDS011;36704;52.524;17.580;2023-04-25T03:33:51;1.70;;;1.55;;
50739;SDS011;36704;52.524;17.580;2023-04-25T03:36:40;1.83;;;1.45;;
50739;SDS011;36704;52.524;17.580;2023-04-25T03:39:27;2.28;;;1.77;;
50739;SDS011;36704;52.524;17.580;2023-04-25T03:42:14;2.92;;;1.85;;
50739;SDS011;36704;52.524;17.580;2023-04-25T03:45:02;3.28;;;1.88;;
50739;SDS011;36704;52.524;17.580;2023-04-25T03:47:48;2.15;;;1.95;;
50739;SDS011;36704;52.524;17.580;2023-04-25T03:50:35;2.80;;;1.90;;
50739;SDS011;36704;52.524;17.580;2023-04-25T03:53:21;2.63;;;2.08;;
50739;SDS011;36704;52.524;17.580;2023-04-25T03:56:28;2.15;;;1.88;;
50739;SDS011;36704;52.524;17.580;2023-04-25T03:59:20;3.47;;;2.05;;
50739;SDS011;36704;52.524;17.580;2023-04-25T04:02:06;2.55;;;2.00;;
50739;SDS011;36704;52.524;17.580;2023-04-25T04:04:53;3.00;;;2.20;;
50739;SDS011;36704;52.524;17.580;2023-04-25T04:07:42;3.47;;;2.22;;
50739;SDS011;36704;52.524;17.580;2023-04-25T04:10:30;3.17;;;2.08;;
50739;SDS011;36704;52.524;17.580;2023-04-25T04:13:16;3.70;;;2.55;;
50739;SDS011;36704;52.524;17.580;2023-04-25T04:16:02;3.47;;;2.20;;
50739;SDS011;36704;52.524;17.580;2023-04-25T04:18:50;3.20;;;1.83;;
50739;SDS011;36704;52.524;17.580;2023-04-25T04:21:36;2.00;;;1.80;;
50739;SDS011;36704;52.524;17.580;2023-04-25T04:24:23;4.13;;;2.30;;
50739;SDS011;36704;52.524;17.580;2023-04-25T04:27:18;3.47;;;2.28;;
50739;SDS011;36704;52.524;17.580;2023-04-25T04:30:43;3.22;;;2.10;;
50739;SDS011;36704;52.524;17.580;2023-04-25T04:33:32;3.35;;;2.38;;
50739;SDS011;36704;52.524;17.580;2023-04-25T04:36:21;3.25;;;2.15;;
50739;SDS011;36704;52.524;17.580;2023-04-25T04:39:09;2.92;;;2.38;;
50739;SDS011;36704;52.524;17.580;2023-04-25T04:42:07;3.47;;;2.35;;
50739;SDS011;36704;52.524;17.580;2023-04-25T04:45:15;3.88;;;2.70;;
50739;SDS011;36704;52.524;17.580;2023-04-25T04:48:26;2.38;;;1.95;;
50739;SDS011;36704;52.524;17.580;2023-04-25T04:51:35;3.88;;;2.40;;
50739;SDS011;36704;52.524;17.580;2023-04-25T04:54:48;3.85;;;2.70;;
50739;SDS011;36704;52.524;17.580;2023-04-25T04:57:50;3.58;;;2.80;;
50739;SDS011;36704;52.524;17.580;2023-04-25T05:00:58;4.75;;;2.53;;
50739;SDS011;36704;52.524;17.580;2023-04-25T05:03:52;3.60;;;2.95;;
50739;SDS011;36704;52.524;17.580;2023-04-25T05:06:56;3.60;;;2.95;;
50739;SDS011;36704;52.524;17.580;2023-04-25T05:10:08;5.38;;;3.15;;
50739;SDS011;36704;52.524;17.580;2023-04-25T05:12:56;4.35;;;3.33;;
50739;SDS011;36704;52.524;17.580;2023-04-25T05:16:09;6.38;;;3.10;;
50739;SDS011;36704;52.524;17.580;2023-04-25T05:19:06;5.85;;;3.33;;
50739;SDS011;36704;52.524;17.580;2023-04-25T05:22:31;4.32;;;3.20;;
50739;SDS011;36704;52.524;17.580;2023-04-25T05:25:46;5.05;;;3.20;;
50739;SDS011;36704;52.524;17.580;2023-04-25T05:28:45;4.03;;;3.03;;
50739;SDS011;36704;52.524;17.580;2023-04-25T05:31:49;5.47;;;2.90;;
50739;SDS011;36704;52.524;17.580;2023-04-25T05:34:36;5.05;;;3.60;;
50739;SDS011;36704;52.524;17.580;2023-04-25T05:37:25;4.43;;;3.35;;
50739;SDS011;36704;52.524;17.580;2023-04-25T05:40:14;6.65;;;3.50;;
50739;SDS011;36704;52.524;17.580;2023-04-25T05:43:00;4.47;;;3.25;;
50739;SDS011;36704;52.524;17.580;2023-04-25T05:46:01;7.05;;;3.72;;
50739;SDS011;36704;52.524;17.580;2023-04-25T05:48:57;5.07;;;4.15;;
50739;SDS011;36704;52.524;17.580;2023-04-25T05:52:02;6.13;;;3.55;;
50739;SDS011;36704;52.524;17.580;2023-04-25T05:55:00;5.60;;;3.55;;
50739;SDS011;36704;52.524;17.580;2023-04-25T05:57:47;6.78;;;4.05;;
50739;SDS011;36704;52.524;17.580;2023-04-25T06:00:36;6.78;;;3.90;;
50739;SDS011;36704;52.524;17.580;2023-04-25T06:03:22;7.13;;;4.07;;
50739;SDS011;36704;52.524;17.580;2023-04-25T06:06:09;6.55;;;3.72;;
50739;SDS011;36704;52.524;17.580;2023-04-25T06:08:55;5.82;;;4.05;;
50739;SDS011;36704;52.524;17.580;2023-04-25T06:11:41;5.78;;;3.58;;
50739;SDS011;36704;52.524;17.580;2023-04-25T06:14:30;7.00;;;4.05;;
50739;SDS011;36704;52.524;17.580;2023-04-25T06:17:16;6.80;;;3.78;;
50739;SDS011;36704;52.524;17.580;2023-04-25T06:20:03;4.75;;;3.63;;
50739;SDS011;36704;52.524;17.580;2023-04-25T06:22:51;5.80;;;3.80;;
50739;SDS011;36704;52.524;17.580;2023-04-25T06:25:43;8.75;;;3.75;;
50739;SDS011;36704;52.524;17.580;2023-04-25T06:28:29;6.32;;;3.40;;
50739;SDS011;36704;52.524;17.580;2023-04-25T06:31:16;5.43;;;3.60;;
50739;SDS011;36704;52.524;17.580;2023-04-25T06:34:04;8.85;;;3.75;;
50739;SDS011;36704;52.524;17.580;2023-04-25T06:36:53;5.43;;;3.40;;
50739;SDS011;36704;52.524;17.580;2023-04-25T06:39:39;4.97;;;4.03;;
50739;SDS011;36704;52.524;17.580;2023-04-25T06:42:26;5.15;;;3.83;;
50739;SDS011;36704;52.524;17.580;2023-04-25T06:45:16;4.07;;;3.53;;
50739;SDS011;36704;52.524;17.580;2023-04-25T06:48:03;7.45;;;3.50;;
50739;SDS011;36704;52.524;17.580;2023-04-25T06:50:49;4.72;;;3.63;;
50739;SDS011;36704;52.524;17.580;2023-04-25T06:53:36;7.38;;;3.95;;
50739;SDS011;36704;52.524;17.580;2023-04-25T06:56:25;5.20;;;3.92;;
50739;SDS011;36704;52.524;17.580;2023-04-25T06:59:18;6.28;;;3.45;;
50739;SDS011;36704;52.524;17.580;2023-04-25T07:02:05;5.55;;;3.90;;
50739;SDS011;36704;52.524;17.580;2023-04-25T07:04:52;4.80;;;3.38;;
50739;SDS011;36704;52.524;17.580;2023-04-25T07:07:39;4.63;;;3.03;;
50739;SDS011;36704;52.524;17.580;2023-04-25T07:10:26;3.78;;;3.13;;
50739;SDS011;36704;52.524;17.580;2023-04-25T07:13:12;4.82;;;3.47;;
50739;SDS011;36704;52.524;17.580;2023-04-25T07:15:58;5.15;;;3.38;;
50739;SDS011;36704;52.524;17.580;2023-04-25T07:18:47;7.53;;;3.35;;
50739;SDS011;36704;52.524;17.580;2023-04-25T07:21:33;3.35;;;2.88;;
50739;SDS011;36704;52.524;17.580;2023-04-25T07:24:21;3.25;;;2.75;;
50739;SDS011;36704;52.524;17.580;2023-04-25T07:27:08;5.05;;;3.55;;
50739;SDS011;36704;52.524;17.580;2023-04-25T07:30:03;7.70;;;3.80;;
50739;SDS011;36704;52.524;17.580;2023-04-25T07:32:50;4.43;;;2.55;;
50739;SDS011;36704;52.524;17.580;2023-04-25T07:35:36;5.13;;;3.33;;
50739;SDS011;36704;52.524;17.580;2023-04-25T07:38:23;5.65;;;3.10;;
50739;SDS011;36704;52.524;17.580;2023-04-25T07:41:09;4.18;;;3.10;;
50739;SDS011;36704;52.524;17.580;2023-04-25T07:43:55;3.88;;;2.78;;
50739;SDS011;36704;52.524;17.580;2023-04-25T07:46:41;6.70;;;3.55;;
50739;SDS011;36704;52.524;17.580;2023-04-25T07:49:28;5.80;;;3.15;;
50739;SDS011;36704;52.524;17.580;2023-04-25T07:52:14;4.88;;;3.10;;
50739;SDS011;36704;52.524;17.580;2023-04-25T07:55:06;4.40;;;3.05;;
50739;SDS011;36704;52.524;17.580;2023-04-25T07:58:12;3.47;;;2.60;;
50739;SDS011;36704;52.524;17.580;2023-04-25T08:01:01;5.40;;;2.88;;
50739;SDS011;36704;52.524;17.580;2023-04-25T08:03:56;4.03;;;2.95;;
50739;SDS011;36704;52.524;17.580;2023-04-25T08:07:18;4.05;;;3.03;;
50739;SDS011;36704;52.524;17.580;2023-04-25T08:10:09;4.18;;;3.00;;
50739;SDS011;36704;52.524;17.580;2023-04-25T08:12:56;6.25;;;3.30;;
50739;SDS011;36704;52.524;17.580;2023-04-25T08:15:42;4.35;;;3.10;;
50739;SDS011;36704;52.524;17.580;2023-04-25T08:18:29;3.95;;;2.83;;
50739;SDS011;36704;52.524;17.580;2023-04-25T08:21:15;4.28;;;2.80;;
50739;SDS011;36704;52.524;17.580;2023-04-25T08:24:02;4.93;;;2.75;;
50739;SDS011;36704;52.524;17.580;2023-04-25T08:26:52;6.43;;;3.10;;
50739;SDS011;36704;52.524;17.580;2023-04-25T08:29:42;5.05;;;3.20;;
50739;SDS011;36704;52.524;17.580;2023-04-25T08:32:27;4.90;;;2.63;;
50739;SDS011;36704;52.524;17.580;2023-04-25T08:35:34;5.15;;;2.85;;
50739;SDS011;36704;52.524;17.580;2023-04-25T08:38:20;4.70;;;2.70;;
50739;SDS011;36704;52.524;17.580;2023-04-25T08:41:07;6.53;;;2.97;;
50739;SDS011;36704;52.524;17.580;2023-04-25T08:43:53;4.63;;;2.80;;
50739;SDS011;36704;52.524;17.580;2023-04-25T08:46:42;7.35;;;2.63;;
50739;SDS011;36704;52.524;17.580;2023-04-25T08:49:44;6.97;;;3.43;;
50739;SDS011;36704;52.524;17.580;2023-04-25T08:52:37;4.35;;;2.78;;
50739;SDS011;36704;52.524;17.580;2023-04-25T08:55:29;5.00;;;3.00;;
50739;SDS011;36704;52.524;17.580;2023-04-25T08:58:18;4.75;;;2.67;;
50739;SDS011;36704;52.524;17.580;2023-04-25T09:01:04;3.85;;;3.00;;
50739;SDS011;36704;52.524;17.580;2023-04-25T09:03:58;4.88;;;2.42;;
50739;SDS011;36704;52.524;17.580;2023-04-25T09:06:44;5.28;;;2.60;;
50739;SDS011;36704;52.524;17.580;2023-04-25T09:09:31;5.13;;;3.00;;
50739;SDS011;36704;52.524;17.580;2023-04-25T09:12:19;5.70;;;2.67;;
50739;SDS011;36704;52.524;17.580;2023-04-25T09:15:08;3.95;;;2.72;;
50739;SDS011;36704;52.524;17.580;2023-04-25T09:18:24;3.88;;;2.80;;
50739;SDS011;36704;52.524;17.580;2023-04-25T09:21:16;5.07;;;3.55;;
50739;SDS011;36704;52.524;17.580;2023-04-25T09:24:05;9.00;;;3.45;;
50739;SDS011;36704;52.524;17.580;2023-04-25T09:26:53;5.00;;;2.92;;
50739;SDS011;36704;52.524;17.580;2023-04-25T09:29:40;5.88;;;2.80;;
50739;SDS011;36704;52.524;17.580;2023-04-25T09:32:28;4.60;;;2.95;;
50739;SDS011;36704;52.524;17.580;2023-04-25T09:35:25;5.18;;;2.90;;
50739;SDS011;36704;52.524;17.580;2023-04-25T09:38:17;5.72;;;2.75;;
50739;SDS011;36704;52.524;17.580;2023-04-25T09:41:21;3.50;;;2.47;;
50739;SDS011;36704;52.524;17.580;2023-04-25T09:44:12;3.58;;;2.63;;
50739;SDS011;36704;52.524;17.580;2023-04-25T09:49:50;3.95;;;2.72;;
50739;SDS011;36704;52.524;17.580;2023-04-25T09:52:38;5.10;;;3.25;;
50739;SDS011;36704;52.524;17.580;2023-04-25T09:55:32;5.63;;;2.88;;
50739;SDS011;36704;52.524;17.580;2023-04-25T09:58:20;6.78;;;2.60;;
50739;SDS011;36704;52.524;17.580;2023-04-25T10:01:08;7.65;;;3.67;;
50739;SDS011;36704;52.524;17.580;2023-04-25T10:04:07;5.25;;;2.92;;
50739;SDS011;36704;52.524;17.580;2023-04-25T10:07:05;5.18;;;2.95;;
50739;SDS011;36704;52.524;17.580;2023-04-25T10:10:02;5.70;;;2.83;;
50739;SDS011;36704;52.524;17.580;2023-04-25T10:12:51;7.35;;;2.90;;
50739;SDS011;36704;52.524;17.580;2023-04-25T10:15:37;4.80;;;3.00;;
50739;SDS011;36704;52.524;17.580;2023-04-25T10:18:25;4.72;;;2.70;;
50739;SDS011;36704;52.524;17.580;2023-04-25T10:21:12;4.88;;;3.08;;
50739;SDS011;36704;52.524;17.580;2023-04-25T10:23:58;5.35;;;2.80;;
50739;SDS011;36704;52.524;17.580;2023-04-25T10:26:45;3.88;;;2.42;;
50739;SDS011;36704;52.524;17.580;2023-04-25T10:29:32;5.85;;;3.20;;
50739;SDS011;36704;52.524;17.580;2023-04-25T10:32:18;5.60;;;2.90;;
50739;SDS011;36704;52.524;17.580;2023-04-25T10:35:11;3.22;;;2.30;;
50739;SDS011;36704;52.524;17.580;2023-04-25T10:38:03;4.95;;;2.65;;
50739;SDS011;36704;52.524;17.580;2023-04-25T10:41:06;3.58;;;2.50;;
50739;SDS011;36704;52.524;17.580;2023-04-25T10:44:01;3.22;;;2.40;;
50739;SDS011;36704;52.524;17.580;2023-04-25T10:46:47;3.58;;;2.78;;
50739;SDS011;36704;52.524;17.580;2023-04-25T10:49:37;4.72;;;2.65;;
50739;SDS011;36704;52.524;17.580;2023-04-25T10:52:27;3.13;;;2.67;;
50739;SDS011;36704;52.524;17.580;2023-04-25T10:55:15;3.83;;;2.40;;
50739;SDS011;36704;52.524;17.580;2023-04-25T10:58:01;5.65;;;2.42;;
50739;SDS011;36704;52.524;17.580;2023-04-25T11:00:47;3.70;;;2.75;;
50739;SDS011;36704;52.524;17.580;2023-04-25T11:03:39;5.95;;;2.60;;
50739;SDS011;36704;52.524;17.580;2023-04-25T11:06:29;5.38;;;2.38;;
50739;SDS011;36704;52.524;17.580;2023-04-25T11:09:23;3.45;;;2.40;;
50739;SDS011;36704;52.524;17.580;2023-04-25T11:12:09;4.28;;;2.35;;
50739;SDS011;36704;52.524;17.580;2023-04-25T11:15:17;6.53;;;2.60;;
50739;SDS011;36704;52.524;17.580;2023-04-25T11:18:04;4.63;;;2.78;;
50739;SDS011;36704;52.524;17.580;2023-04-25T11:20:51;4.15;;;2.30;;
50739;SDS011;36704;52.524;17.580;2023-04-25T11:23:37;4.78;;;3.30;;
50739;SDS011;36704;52.524;17.580;2023-04-25T11:26:24;6.03;;;2.80;;
50739;SDS011;36704;52.524;17.580;2023-04-25T11:29:10;5.25;;;2.72;;
50739;SDS011;36704;52.524;17.580;2023-04-25T11:31:57;4.32;;;2.50;;
50739;SDS011;36704;52.524;17.580;2023-04-25T11:34:43;5.75;;;3.15;;
50739;SDS011;36704;52.524;17.580;2023-04-25T11:37:30;6.20;;;2.70;;
50739;SDS011;36704;52.524;17.580;2023-04-25T11:40:17;5.38;;;2.75;;
50739;SDS011;36704;52.524;17.580;2023-04-25T11:43:04;4.43;;;2.53;;
50739;SDS011;36704;52.524;17.580;2023-04-25T11:45:50;5.68;;;3.45;;
50739;SDS011;36704;52.524;17.580;2023-04-25T11:48:40;6.80;;;3.67;;
50739;SDS011;36704;52.524;17.580;2023-04-25T11:51:27;10.07;;;4.70;;
50739;SDS011;36704;52.524;17.580;2023-04-25T11:54:13;8.20;;;4.50;;
50739;SDS011;36704;52.524;17.580;2023-04-25T11:56:59;6.60;;;4.25;;
50739;SDS011;36704;52.524;17.580;2023-04-25T11:59:47;13.88;;;5.88;;
50739;SDS011;36704;52.524;17.580;2023-04-25T12:02:37;12.10;;;6.13;;
50739;SDS011;36704;52.524;17.580;2023-04-25T12:05:24;14.55;;;6.05;;
50739;SDS011;36704;52.524;17.580;2023-04-25T12:08:17;19.42;;;6.95;;
50739;SDS011;36704;52.524;17.580;2023-04-25T12:11:04;20.70;;;9.05;;
50739;SDS011;36704;52.524;17.580;2023-04-25T12:13:53;29.40;;;11.68;;
50739;SDS011;36704;52.524;17.580;2023-04-25T12:16:44;29.35;;;10.32;;
50739;SDS011;36704;52.524;17.580;2023-04-25T12:19:33;26.13;;;11.27;;
50739;SDS011;36704;52.524;17.580;2023-04-25T12:22:22;11.90;;;5.70;;
50739;SDS011;36704;52.524;17.580;2023-04-25T12:25:10;14.15;;;6.65;;
50739;SDS011;36704;52.524;17.580;2023-04-25T12:31:07;13.30;;;5.38;;
50739;SDS011;36704;52.524;17.580;2023-04-25T12:33:54;9.32;;;4.25;;
50739;SDS011;36704;52.524;17.580;2023-04-25T12:36:40;6.20;;;2.83;;
50739;SDS011;36704;52.524;17.580;2023-04-25T12:39:26;5.47;;;3.00;;
50739;SDS011;36704;52.524;17.580;2023-04-25T12:42:12;5.22;;;3.10;;
50739;SDS011;36704;52.524;17.580;2023-04-25T12:44:59;5.03;;;2.58;;
50739;SDS011;36704;52.524;17.580;2023-04-25T12:47:45;5.13;;;2.60;;
50739;SDS011;36704;52.524;17.580;2023-04-25T12:50:32;5.88;;;2.58;;
50739;SDS011;36704;52.524;17.580;2023-04-25T12:53:20;3.42;;;2.20;;
50739;SDS011;36704;52.524;17.580;2023-04-25T12:56:08;4.40;;;2.50;;
50739;SDS011;36704;52.524;17.580;2023-04-25T12:58:54;5.32;;;2.70;;
50739;SDS011;36704;52.524;17.580;2023-04-25T13:01:41;5.18;;;2.83;;
50739;SDS011;36704;52.524;17.580;2023-04-25T13:04:27;6.82;;;3.17;;
50739;SDS011;36704;52.524;17.580;2023-04-25T13:07:13;4.78;;;2.47;;
50739;SDS011;36704;52.524;17.580;2023-04-25T13:10:00;4.00;;;2.63;;
50739;SDS011;36704;52.524;17.580;2023-04-25T13:12:49;4.90;;;2.50;;
50739;SDS011;36704;52.524;17.580;2023-04-25T13:15:35;3.55;;;2.63;;
50739;SDS011;36704;52.524;17.580;2023-04-25T13:18:22;3.42;;;2.40;;
50739;SDS011;36704;52.524;17.580;2023-04-25T13:21:11;5.30;;;3.65;;
50739;SDS011;36704;52.524;17.580;2023-04-25T13:23:58;3.95;;;2.30;;
50739;SDS011;36704;52.524;17.580;2023-04-25T13:26:44;3.17;;;2.13;;
50739;SDS011;36704;52.524;17.580;2023-04-25T13:29:31;5.75;;;2.42;;
50739;SDS011;36704;52.524;17.580;2023-04-25T13:32:19;3.30;;;2.38;;
50739;SDS011;36704;52.524;17.580;2023-04-25T13:35:07;4.80;;;2.70;;
50739;SDS011;36704;52.524;17.580;2023-04-25T13:37:56;5.10;;;2.60;;
50739;SDS011;36704;52.524;17.580;2023-04-25T13:40:42;8.48;;;4.13;;
50739;SDS011;36704;52.524;17.580;2023-04-25T13:43:28;16.77;;;6.95;;
50739;SDS011;36704;52.524;17.580;2023-04-25T13:46:14;7.55;;;3.63;;
50739;SDS011;36704;52.524;17.580;2023-04-25T13:49:21;12.60;;;4.93;;
50739;SDS011;36704;52.524;17.580;2023-04-25T13:52:08;9.25;;;4.68;;
50739;SDS011;36704;52.524;17.580;2023-04-25T13:54:54;19.65;;;7.50;;
50739;SDS011;36704;52.524;17.580;2023-04-25T13:57:40;22.80;;;8.40;;
50739;SDS011;36704;52.524;17.580;2023-04-25T14:00:26;38.70;;;13.25;;
50739;SDS011;36704;52.524;17.580;2023-04-25T14:03:13;30.80;;;11.20;;
50739;SDS011;36704;52.524;17.580;2023-04-25T14:05:59;15.75;;;7.25;;
50739;SDS011;36704;52.524;17.580;2023-04-25T14:08:44;11.68;;;5.78;;
50739;SDS011;36704;52.524;17.580;2023-04-25T14:11:31;11.40;;;4.85;;
50739;SDS011;36704;52.524;17.580;2023-04-25T14:14:16;7.85;;;4.25;;
50739;SDS011;36704;52.524;17.580;2023-04-25T14:17:03;9.18;;;4.32;;
50739;SDS011;36704;52.524;17.580;2023-04-25T14:19:50;10.60;;;4.82;;
50739;SDS011;36704;52.524;17.580;2023-04-25T14:22:36;5.75;;;3.83;;
50739;SDS011;36704;52.524;17.580;2023-04-25T14:25:25;9.60;;;3.97;;
50739;SDS011;36704;52.524;17.580;2023-04-25T14:28:11;5.63;;;3.58;;
50739;SDS011;36704;52.524;17.580;2023-04-25T14:30:57;7.20;;;3.75;;
50739;SDS011;36704;52.524;17.580;2023-04-25T14:33:43;6.50;;;3.50;;
50739;SDS011;36704;52.524;17.580;2023-04-25T14:36:29;6.05;;;3.88;;
50739;SDS011;36704;52.524;17.580;2023-04-25T14:39:16;5.35;;;3.60;;
50739;SDS011;36704;52.524;17.580;2023-04-25T14:42:02;5.50;;;3.40;;
50739;SDS011;36704;52.524;17.580;2023-04-25T14:44:48;5.03;;;2.90;;
50739;SDS011;36704;52.524;17.580;2023-04-25T14:47:38;5.30;;;3.40;;
50739;SDS011;36704;52.524;17.580;2023-04-25T14:50:24;5.55;;;2.97;;
50739;SDS011;36704;52.524;17.580;2023-04-25T14:53:10;5.70;;;3.30;;
50739;SDS011;36704;52.524;17.580;2023-04-25T14:55:57;5.22;;;2.83;;
50739;SDS011;36704;52.524;17.580;2023-04-25T14:58:44;6.32;;;2.15;;
50739;SDS011;36704;52.524;17.580;2023-04-25T15:01:30;4.57;;;2.33;;
50739;SDS011;36704;52.524;17.580;2023-04-25T15:04:17;4.68;;;2.92;;
50739;SDS011;36704;52.524;17.580;2023-04-25T15:07:03;3.10;;;1.83;;
50739;SDS011;36704;52.524;17.580;2023-04-25T15:09:51;3.15;;;2.00;;
50739;SDS011;36704;52.524;17.580;2023-04-25T15:12:44;3.05;;;2.03;;
50739;SDS011;36704;52.524;17.580;2023-04-25T15:15:32;5.03;;;2.10;;
50739;SDS011;36704;52.524;17.580;2023-04-25T15:18:19;3.22;;;2.20;;
50739;SDS011;36704;52.524;17.580;2023-04-25T15:21:08;5.00;;;2.20;;
50739;SDS011;36704;52.524;17.580;2023-04-25T15:23:54;5.10;;;2.40;;
50739;SDS011;36704;52.524;17.580;2023-04-25T15:26:40;3.65;;;2.10;;
50739;SDS011;36704;52.524;17.580;2023-04-25T15:29:26;5.32;;;2.92;;
50739;SDS011;36704;52.524;17.580;2023-04-25T15:32:13;7.47;;;4.18;;
50739;SDS011;36704;52.524;17.580;2023-04-25T15:34:59;9.13;;;4.55;;
50739;SDS011;36704;52.524;17.580;2023-04-25T15:37:49;9.52;;;4.63;;
50739;SDS011;36704;52.524;17.580;2023-04-25T15:40:36;7.55;;;4.35;;
50739;SDS011;36704;52.524;17.580;2023-04-25T15:43:23;8.25;;;4.50;;
50739;SDS011;36704;52.524;17.580;2023-04-25T15:46:09;27.20;;;12.02;;
50739;SDS011;36704;52.524;17.580;2023-04-25T15:48:56;25.25;;;13.70;;
50739;SDS011;36704;52.524;17.580;2023-04-25T15:51:42;10.68;;;5.45;;
50739;SDS011;36704;52.524;17.580;2023-04-25T15:54:27;8.13;;;4.50;;
50739;SDS011;36704;52.524;17.580;2023-04-25T15:57:14;8.93;;;4.78;;
50739;SDS011;36704;52.524;17.580;2023-04-25T16:00:01;6.25;;;3.50;;
50739;SDS011;36704;52.524;17.580;2023-04-25T16:03:14;9.02;;;4.20;;
50739;SDS011;36704;52.524;17.580;2023-04-25T16:06:01;8.25;;;4.50;;
50739;SDS011;36704;52.524;17.580;2023-04-25T16:08:47;7.88;;;4.15;;
50739;SDS011;36704;52.524;17.580;2023-04-25T16:11:33;6.90;;;3.72;;
50739;SDS011;36704;52.524;17.580;2023-04-25T16:14:19;5.35;;;3.90;;
50739;SDS011;36704;52.524;17.580;2023-04-25T16:17:05;9.15;;;4.00;;
50739;SDS011;36704;52.524;17.580;2023-04-25T16:19:52;6.47;;;3.30;;
50739;SDS011;36704;52.524;17.580;2023-04-25T16:22:38;7.70;;;3.63;;
50739;SDS011;36704;52.524;17.580;2023-04-25T16:25:25;5.50;;;3.22;;
50739;SDS011;36704;52.524;17.580;2023-04-25T16:28:11;6.43;;;3.72;;
50739;SDS011;36704;52.524;17.580;2023-04-25T16:30:57;5.90;;;2.92;;
50739;SDS011;36704;52.524;17.580;2023-04-25T16:33:44;7.07;;;2.92;;
50739;SDS011;36704;52.524;17.580;2023-04-25T16:36:30;5.10;;;2.80;;
50739;SDS011;36704;52.524;17.580;2023-04-25T16:39:19;6.63;;;3.28;;
50739;SDS011;36704;52.524;17.580;2023-04-25T16:42:06;8.52;;;3.28;;
50739;SDS011;36704;52.524;17.580;2023-04-25T16:44:53;4.85;;;2.95;;
50739;SDS011;36704;52.524;17.580;2023-04-25T16:47:38;8.70;;;3.17;;
50739;SDS011;36704;52.524;17.580;2023-04-25T16:50:24;5.88;;;3.97;;